Time;durP1;ratioP1;P1;durP2;ratioP2;P2;SDS_P1;SDS_P2;PMS_P1;PMS_P2;Temp;Humidity;BMP_temperature;BMP_pressure;BME280_temperature;BME280_humidity;BME280_pressure;Samples;Min_cycle;Max_cycle;Signal;HPM_P1;HPM_P2
2021/01/16 00:00:26;;;;;;;27.58;13.20;;;;;;;-8.86;55.87;100263.25;1701696;84;21354;-57
2021/01/16 00:03:32;;;;;;;24.07;12.70;;;;;;;-8.80;55.70;100257.70;1702471;84;21362;-58
2021/01/16 00:06:39;;;;;;;28.52;13.40;;;;;;;-8.77;55.59;100263.77;1702657;84;21342;-56
2021/01/16 00:09:45;;;;;;;24.52;12.13;;;;;;;-8.76;55.46;100270.78;1702762;84;21474;-56
2021/01/16 00:12:57;;;;;;;20.75;11.05;;;;;;;-8.73;55.34;100273.77;1700674;84;21338;-57
2021/01/16 00:16:02;;;;;;;25.48;12.78;;;;;;;-8.73;55.31;100277.74;1702788;84;21817;-56
2021/01/16 00:19:10;;;;;;;19.90;11.20;;;;;;;-8.69;55.26;100264.33;1702710;84;21382;-57
2021/01/16 00:22:15;;;;;;;21.37;11.50;;;;;;;-8.71;55.15;100268.83;1702304;84;21316;-57
2021/01/16 00:25:21;;;;;;;24.45;12.13;;;;;;;-8.72;55.25;100277.69;1702273;84;21224;-56
2021/01/16 00:28:31;;;;;;;23.57;11.95;;;;;;;-8.69;55.31;100274.06;1700621;84;21598;-56
2021/01/16 00:31:37;;;;;;;20.00;10.53;;;;;;;-8.68;55.37;100279.31;1702606;84;21228;-56
2021/01/16 00:34:43;;;;;;;20.25;11.48;;;;;;;-8.71;55.51;100281.21;1701160;84;21386;-56
2021/01/16 00:37:49;;;;;;;19.40;10.18;;;;;;;-8.67;55.71;100276.20;1701933;84;21698;-56
2021/01/16 00:40:54;;;;;;;20.08;10.78;;;;;;;-8.65;55.79;100287.59;1701812;84;21323;-57
2021/01/16 00:44:00;;;;;;;21.33;11.23;;;;;;;-8.64;55.84;100286.21;1701606;84;21295;-57
2021/01/16 00:47:06;;;;;;;20.17;10.93;;;;;;;-8.61;55.95;100283.92;1701732;83;21240;-57
2021/01/16 00:50:15;;;;;;;17.75;10.55;;;;;;;-8.57;56.03;100277.56;1702471;84;21378;-56
2021/01/16 00:53:21;;;;;;;21.42;10.70;;;;;;;-8.60;56.02;100274.58;1702586;84;21902;-56
2021/01/16 00:56:29;;;;;;;22.82;12.25;;;;;;;-8.59;56.07;100263.03;1701785;84;21363;-56
2021/01/16 00:59:37;;;;;;;27.27;14.10;;;;;;;-8.60;56.13;100271.92;1702561;84;21434;-56
2021/01/16 01:02:48;;;;;;;19.12;10.98;;;;;;;-8.56;56.09;100280.15;1698762;84;21415;-55
2021/01/16 01:05:54;;;;;;;20.82;11.12;;;;;;;-8.54;56.05;100285.39;1686706;84;21350;-56
2021/01/16 01:08:59;;;;;;;23.73;11.12;;;;;;;-8.56;56.08;100275.33;1702598;84;21919;-56
2021/01/16 01:12:05;;;;;;;20.65;11.00;;;;;;;-8.49;56.25;100268.84;1702288;84;21196;-57
2021/01/16 01:15:13;;;;;;;19.17;11.08;;;;;;;-8.49;56.25;100268.84;1701569;84;21247;-56
2021/01/16 01:18:20;;;;;;;20.65;10.25;;;;;;;-8.36;56.11;100277.59;1702390;84;21409;-56
2021/01/16 01:21:30;;;;;;;21.73;10.55;;;;;;;-8.28;56.02;100259.58;1702561;84;21350;-57
2021/01/16 01:24:36;;;;;;;27.80;14.15;;;;;;;-8.07;56.10;100276.39;1702487;84;21255;-62
2021/01/16 01:27:43;;;;;;;21.30;12.90;;;;;;;-7.87;56.00;100271.98;1702581;84;21206;-56
2021/01/16 01:30:49;;;;;;;22.13;11.22;;;;;;;-7.70;55.82;100268.59;1702536;84;21689;-56
2021/01/16 01:33:54;;;;;;;19.65;10.85;;;;;;;-7.61;55.55;100261.55;1702496;84;21243;-57
2021/01/16 01:37:00;;;;;;;19.90;11.05;;;;;;;-7.56;55.46;100264.03;1702568;84;21259;-57
2021/01/16 01:40:06;;;;;;;21.45;11.22;;;;;;;-7.46;55.55;100269.33;1702539;84;21382;-56
2021/01/16 01:43:12;;;;;;;21.73;11.68;;;;;;;-7.38;55.53;100262.75;1702539;84;21374;-58
2021/01/16 01:46:17;;;;;;;19.95;10.23;;;;;;;-7.27;55.56;100268.91;1700878;84;21244;-57
2021/01/16 01:49:22;;;;;;;16.70;9.78;;;;;;;-7.23;55.30;100273.19;1693429;84;21210;-56
2021/01/16 01:52:27;;;;;;;16.93;10.45;;;;;;;-7.22;55.36;100270.91;1694783;84;21221;-57
2021/01/16 01:55:34;;;;;;;23.80;11.78;;;;;;;-7.18;55.45;100267.20;1694833;84;21234;-57
2021/01/16 01:58:41;;;;;;;23.15;12.43;;;;;;;-7.15;55.57;100259.09;1694722;84;21266;-57
2021/01/16 02:01:53;;;;;;;24.63;12.37;;;;;;;-7.12;55.63;100262.45;1694779;84;21505;-59
2021/01/16 02:05:01;;;;;;;18.95;11.03;;;;;;;-7.13;55.78;100261.19;1694846;84;21250;-57
2021/01/16 02:08:08;;;;;;;19.50;10.43;;;;;;;-7.20;55.89;100275.25;1694643;84;21326;-56
2021/01/16 02:11:13;;;;;;;22.22;11.12;;;;;;;-7.26;56.06;100275.98;1694767;84;21591;-56
2021/01/16 02:14:24;;;;;;;23.98;11.03;;;;;;;-7.41;56.22;100273.98;1694761;84;21241;-56
2021/01/16 02:17:32;;;;;;;23.07;10.80;;;;;;;-7.54;56.50;100270.13;1694620;84;21234;-57
2021/01/16 02:20:41;;;;;;;22.95;11.88;;;;;;;-7.62;56.79;100269.12;1694704;84;21262;-56
2021/01/16 02:23:52;;;;;;;26.85;13.25;;;;;;;-7.65;56.96;100267.06;1694781;84;21238;-57
2021/01/16 02:27:30;;;;;;;24.57;13.18;;;;;;;-7.66;57.10;100277.30;1694880;84;21213;-56
2021/01/16 02:30:35;;;;;;;24.15;12.55;;;;;;;-7.65;57.10;100290.97;1694852;84;21250;-57
2021/01/16 02:33:40;;;;;;;17.75;10.93;;;;;;;-7.69;57.02;100290.27;1694780;84;21242;-56
2021/01/16 02:36:50;;;;;;;23.85;11.68;;;;;;;-7.79;56.93;100292.44;1694765;84;21354;-55
2021/01/16 02:40:20;;;;;;;23.62;11.63;;;;;;;-7.95;56.72;100291.80;1694834;84;21670;-56
2021/01/16 02:43:36;;;;;;;16.50;10.60;;;;;;;-8.07;57.08;100290.98;1694695;84;21285;-56
2021/01/16 02:46:47;;;;;;;20.92;10.75;;;;;;;-8.21;57.23;100287.55;1694743;84;21575;-57
2021/01/16 02:50:03;;;;;;;24.82;12.10;;;;;;;-8.27;57.33;100297.13;1687150;83;21211;-57
2021/01/16 02:53:08;;;;;;;24.35;13.53;;;;;;;-8.35;57.40;100291.25;1679595;85;21350;-57
2021/01/16 02:56:22;;;;;;;25.70;12.00;;;;;;;-8.33;57.46;100297.83;1679716;85;21215;-57
2021/01/16 02:59:26;;;;;;;;;;;;;;;-8.30;57.30;100306.53;1682222;85;21581;-56
2021/01/16 03:02:32;;;;;;;22.95;12.03;;;;;;;-8.34;57.11;100306.23;1679311;85;20189;-57
2021/01/16 03:05:38;;;;;;;21.57;12.98;;;;;;;-8.45;56.83;100308.45;1679500;85;21469;-57
2021/01/16 03:08:43;;;;;;;22.10;11.08;;;;;;;-8.45;56.83;100308.45;1679591;85;21385;-56
2021/01/16 03:11:52;;;;;;;22.60;12.10;;;;;;;-8.47;56.93;100310.32;1679696;85;21851;-56
2021/01/16 03:15:03;;;;;;;34.08;16.70;;;;;;;-8.53;56.55;100318.49;1679587;85;21486;-56
2021/01/16 03:18:08;;;;;;;23.00;12.07;;;;;;;-8.53;56.55;100318.49;1679555;85;21965;-55
2021/01/16 03:21:13;;;;;;;22.50;12.15;;;;;;;-8.62;56.49;100316.20;1679578;85;21756;-56
2021/01/16 03:24:19;;;;;;;24.25;12.55;;;;;;;-8.72;56.54;100316.14;1669500;85;21797;-55
2021/01/16 03:27:24;;;;;;;25.55;14.45;;;;;;;-8.72;56.42;100320.12;1679514;85;21346;-56
2021/01/16 03:30:30;;;;;;;21.33;11.68;;;;;;;-8.72;56.42;100320.12;1679626;85;21405;-56
2021/01/16 03:33:36;;;;;;;22.50;12.43;;;;;;;-8.69;56.26;100322.69;1679541;85;21373;-57
2021/01/16 03:36:41;;;;;;;22.02;11.78;;;;;;;-8.63;56.40;100321.57;1679634;85;21236;-55
2021/01/16 03:39:46;;;;;;;22.48;11.63;;;;;;;-8.63;56.40;100321.57;1679608;85;21412;-57
2021/01/16 03:42:52;;;;;;;19.25;11.05;;;;;;;-8.60;56.47;100314.81;1679549;85;21267;-56
2021/01/16 03:45:57;;;;;;;25.65;12.13;;;;;;;-8.54;56.43;100322.53;1679648;85;21349;-56
2021/01/16 03:49:03;;;;;;;25.97;14.25;;;;;;;-8.59;56.32;100319.22;1679478;85;21255;-56
2021/01/16 03:52:08;;;;;;;33.58;16.95;;;;;;;-8.60;56.47;100319.67;1685138;83;21329;-56
2021/01/16 03:55:15;;;;;;;31.25;15.90;;;;;;;-8.48;56.59;100329.80;1685202;85;21251;-56
2021/01/16 03:58:20;;;;;;;33.58;17.23;;;;;;;-8.38;56.62;100325.88;1685367;85;21953;-55
2021/01/16 04:01:26;;;;;;;38.30;17.57;;;;;;;-8.27;56.61;100301.11;1685309;85;21922;-56
2021/01/16 04:04:32;;;;;;;37.95;16.67;;;;;;;-7.97;56.42;100338.79;1685328;85;21227;-55
2021/01/16 04:07:39;;;;;;;32.58;15.70;;;;;;;-7.97;56.42;100338.79;1685190;84;21211;-56
2021/01/16 04:10:45;;;;;;;33.75;16.57;;;;;;;-7.78;56.24;100339.77;1685259;85;21353;-57
2021/01/16 04:13:52;;;;;;;46.63;21.37;;;;;;;-7.78;56.24;100339.77;1685150;85;21412;-57
2021/01/16 04:17:00;;;;;;;64.80;26.70;;;;;;;-7.64;56.07;100349.84;1685269;85;21254;-56
2021/01/16 04:20:06;;;;;;;40.98;19.73;;;;;;;-7.56;55.86;100343.75;1685167;85;21373;-56
2021/01/16 04:23:12;;;;;;;25.15;12.98;;;;;;;-7.51;55.72;100339.08;1685327;85;21400;-57
2021/01/16 04:26:17;;;;;;;22.85;11.57;;;;;;;-7.42;55.67;100345.36;1685323;85;21377;-56
2021/01/16 04:29:24;;;;;;;25.77;14.70;;;;;;;-7.35;55.61;100345.48;1662355;85;21902;-57
2021/01/16 04:32:30;;;;;;;48.08;20.32;;;;;;;-7.29;55.60;100354.05;1629454;86;21363;-56
2021/01/16 04:35:38;;;;;;;23.57;12.85;;;;;;;-7.20;55.44;100347.49;1677653;85;21230;-56
2021/01/16 04:38:44;;;;;;;18.15;11.80;;;;;;;-7.12;55.35;100356.00;1677688;85;21243;-57
2021/01/16 04:41:49;;;;;;;33.73;16.87;;;;;;;-7.10;55.21;100347.50;1677844;85;21215;-57
2021/01/16 04:44:54;;;;;;;36.98;18.37;;;;;;;-7.06;55.10;100357.06;1658358;85;21215;-60
2021/01/16 04:47:59;;;;;;;35.33;18.70;;;;;;;-7.03;55.00;100351.15;1677422;85;21203;-57
2021/01/16 04:51:05;;;;;;;36.93;18.15;;;;;;;-6.97;54.94;100353.53;1659233;83;21425;-57
2021/01/16 04:54:12;;;;;;;46.02;23.57;;;;;;;-6.90;54.85;100356.79;1694878;84;21250;-56
2021/01/16 04:57:20;;;;;;;49.48;24.82;;;;;;;-6.83;54.76;100357.77;1695082;84;21222;-56
2021/01/16 05:00:27;;;;;;;42.38;23.65;;;;;;;-6.79;54.64;100342.54;1695066;84;21214;-57
2021/01/16 05:03:32;;;;;;;44.20;21.95;;;;;;;-6.77;54.55;100351.33;1695080;84;21269;-56
2021/01/16 05:06:38;;;;;;;44.35;22.90;;;;;;;-6.74;54.53;100345.37;1695069;84;21186;-55
2021/01/16 05:09:46;;;;;;;36.23;18.67;;;;;;;-6.66;54.60;100351.70;1695059;84;21752;-56
2021/01/16 05:13:07;;;;;;;27.07;15.20;;;;;;;-6.59;54.52;100343.36;1694951;84;21314;-56
2021/01/16 05:16:13;;;;;;;31.57;15.93;;;;;;;-6.55;54.47;100354.25;1695254;84;21210;-56
2021/01/16 05:19:21;;;;;;;31.97;15.93;;;;;;;-6.50;54.40;100353.58;1694892;84;21330;-57
2021/01/16 05:22:26;;;;;;;23.85;13.28;;;;;;;-6.47;54.33;100363.23;1694983;84;21229;-56
2021/01/16 05:25:32;;;;;;;20.23;11.38;;;;;;;-6.47;54.22;100365.41;1694982;84;21230;-57
2021/01/16 05:28:39;;;;;;;23.20;12.25;;;;;;;-6.47;54.36;100379.21;1694905;84;21250;-56
2021/01/16 05:31:45;;;;;;;19.45;11.05;;;;;;;-6.41;54.41;100377.59;1694970;84;21211;-55
2021/01/16 05:34:51;;;;;;;19.23;10.85;;;;;;;-6.35;54.31;100376.84;1702873;83;21234;-56
2021/01/16 05:37:58;;;;;;;18.20;11.28;;;;;;;-6.39;54.14;100384.56;1692241;84;21389;-56
2021/01/16 05:41:04;;;;;;;17.20;10.50;;;;;;;-6.43;54.42;100382.11;1711800;84;21226;-55
2021/01/16 05:44:09;;;;;;;16.55;9.93;;;;;;;-6.38;54.53;100380.11;1692881;83;21325;-56
2021/01/16 05:47:15;;;;;;;16.70;10.40;;;;;;;-6.37;54.51;100385.83;1698535;83;22020;-57
2021/01/16 05:50:20;;;;;;;19.82;10.93;;;;;;;-6.31;54.53;100392.23;1711234;84;21279;-56
2021/01/16 05:53:25;;;;;;;20.60;11.12;;;;;;;-6.29;54.53;100385.87;1710046;83;21557;-56
2021/01/16 05:56:32;;;;;;;17.05;9.78;;;;;;;-6.25;54.41;100378.62;1714655;83;21194;-57
2021/01/16 05:59:39;;;;;;;15.38;9.18;;;;;;;-6.29;54.44;100375.69;1721460;83;21214;-57
2021/01/16 06:02:44;;;;;;;18.05;9.58;;;;;;;-6.25;54.54;100378.62;1713878;83;21229;-57
2021/01/16 06:05:59;;;;;;;20.60;10.70;;;;;;;-6.20;54.56;100384.60;1707485;83;21383;-57
2021/01/16 06:09:04;;;;;;;18.75;10.78;;;;;;;-6.15;54.44;100385.22;1723055;82;21210;-56
2021/01/16 06:12:11;;;;;;;20.23;11.30;;;;;;;-6.10;54.23;100381.04;1723343;83;21223;-56
2021/01/16 06:15:25;;;;;;;19.42;11.20;;;;;;;-6.10;54.15;100383.21;1722193;82;21258;-57
2021/01/16 06:18:34;;;;;;;50.52;22.55;;;;;;;-6.04;54.08;100382.08;1721267;82;21449;-56
2021/01/16 06:21:40;;;;;;;163.07;65.78;;;;;;;-5.96;54.06;100380.75;1722927;82;21207;-56
2021/01/16 06:24:45;;;;;;;57.35;29.00;;;;;;;-5.86;53.81;100387.38;1721147;82;22143;-57
2021/01/16 06:27:51;;;;;;;38.17;19.57;;;;;;;-5.85;53.59;100393.09;1715465;83;21238;-55
2021/01/16 06:31:02;;;;;;;63.98;32.67;;;;;;;-5.85;53.70;100402.42;1722442;83;21720;-57
2021/01/16 06:34:12;;;;;;;68.20;35.83;;;;;;;-5.75;53.55;100403.69;1722741;83;21195;-57
2021/01/16 06:37:21;;;;;;;46.88;24.80;;;;;;;-5.70;53.35;100407.00;1723110;83;21207;-56
2021/01/16 06:40:38;;;;;;;83.07;45.88;;;;;;;-5.64;53.29;100418.69;1723753;83;21277;-57
2021/01/16 06:43:47;;;;;;;25.97;15.90;;;;;;;-5.65;53.09;100408.11;1723100;83;21254;-58
2021/01/16 06:46:57;;;;;;;27.07;14.45;;;;;;;-5.71;52.99;100413.73;1721759;83;21733;-55
2021/01/16 06:50:07;;;;;;;32.50;18.77;;;;;;;-5.70;53.01;100413.66;1722858;83;21214;-56
2021/01/16 06:53:15;;;;;;;25.97;13.88;;;;;;;-5.80;53.16;100413.70;1723095;83;21254;-56
2021/01/16 06:56:22;;;;;;;24.40;13.93;;;;;;;-5.83;53.38;100405.02;1684144;85;21283;-57
2021/01/16 06:59:26;;;;;;;21.62;12.63;;;;;;;-5.81;53.56;100411.11;1669146;85;21239;-56
2021/01/16 07:02:41;;;;;;;19.98;11.05;;;;;;;-5.85;53.52;100405.58;1658395;86;21315;-57
2021/01/16 07:05:47;;;;;;;17.27;9.93;;;;;;;-5.89;53.57;100426.17;1658440;86;21743;-57
2021/01/16 07:08:52;;;;;;;19.05;11.48;;;;;;;-6.00;53.59;100435.59;1657030;86;21259;-57
2021/01/16 07:12:02;;;;;;;20.40;12.33;;;;;;;-6.07;53.55;100427.02;1654756;85;21286;-56
2021/01/16 07:15:08;;;;;;;16.73;10.65;;;;;;;-6.18;53.72;100428.47;1655749;86;21306;-56
2021/01/16 07:18:14;;;;;;;19.95;11.40;;;;;;;-6.18;53.95;100430.64;1681816;84;21237;-55
2021/01/16 07:21:19;;;;;;;25.30;14.13;;;;;;;-6.19;54.02;100424.94;1662449;85;21196;-58
2021/01/16 07:24:26;;;;;;;30.12;13.93;;;;;;;-6.17;54.05;100425.73;1687166;85;21298;-58
2021/01/16 07:27:32;;;;;;;27.05;14.00;;;;;;;-6.21;53.93;100430.33;1686448;85;21756;-57
2021/01/16 07:30:37;;;;;;;19.67;10.93;;;;;;;-6.24;54.08;100434.92;1686864;85;21279;-57
2021/01/16 07:33:43;;;;;;;21.10;12.37;;;;;;;-6.21;54.04;100433.45;1686185;85;21227;-56
2021/01/16 07:36:49;;;;;;;28.80;16.93;;;;;;;-6.17;54.19;100436.39;1683551;85;21729;-56
2021/01/16 07:39:55;;;;;;;24.35;14.90;;;;;;;-6.07;54.19;100436.34;1686686;85;21227;-57
2021/01/16 07:43:04;;;;;;;22.62;13.40;;;;;;;-5.93;54.03;100435.22;1687251;84;21879;-58
2021/01/16 07:46:09;;;;;;;24.70;11.93;;;;;;;-5.88;53.63;100442.55;1696362;84;21311;-58
2021/01/16 07:49:14;;;;;;;20.60;13.40;;;;;;;-5.85;53.54;100434.89;1686807;85;21235;-54
2021/01/16 07:52:20;;;;;;;21.35;11.70;;;;;;;-5.79;53.44;100440.77;1673872;85;21757;-59
2021/01/16 07:55:26;;;;;;;21.12;11.05;;;;;;;-5.68;53.38;100446.91;1696784;82;21230;-58
2021/01/16 07:58:43;;;;;;;25.95;14.45;;;;;;;-5.62;52.93;100450.15;1708964;82;21235;-58
2021/01/16 08:02:08;;;;;;;17.42;10.85;;;;;;;-5.68;52.80;100457.57;1658739;85;21232;-58
2021/01/16 08:05:29;;;;;;;18.98;11.53;;;;;;;-5.67;52.84;100457.95;1647870;87;21281;-57
2021/01/16 08:09:09;;;;;;;25.55;13.68;;;;;;;-5.66;52.82;100461.88;1686857;82;21346;-58
2021/01/16 08:12:18;;;;;;;16.90;10.05;;;;;;;-5.56;52.67;100474.30;1681561;84;21545;-59
2021/01/16 08:15:25;;;;;;;17.27;10.85;;;;;;;-5.56;52.58;100470.30;1683573;84;21832;-58
2021/01/16 08:18:31;;;;;;;21.50;12.25;;;;;;;-5.56;52.51;100462.30;1681335;85;21212;-59
2021/01/16 08:21:37;;;;;;;19.37;10.98;;;;;;;-5.55;52.46;100472.05;1675601;85;21223;-59
2021/01/16 08:24:42;;;;;;;18.27;10.45;;;;;;;-5.49;52.43;100473.95;1708260;84;21207;-58
2021/01/16 08:27:57;;;;;;;20.88;11.95;;;;;;;-5.43;52.33;100464.33;1676601;85;21357;-59
2021/01/16 08:31:03;;;;;;;18.73;11.88;;;;;;;-5.31;52.33;100470.87;1676610;85;21308;-57
2021/01/16 08:34:08;;;;;;;18.48;11.18;;;;;;;-5.20;52.11;100473.39;1680052;84;21226;-58
2021/01/16 08:37:16;;;;;;;21.23;12.33;;;;;;;-5.17;51.84;100467.90;1688007;84;21732;-58
2021/01/16 08:40:22;;;;;;;18.92;10.30;;;;;;;-5.13;51.67;100475.29;1706080;84;21203;-59
2021/01/16 08:43:42;;;;;;;27.82;17.05;;;;;;;-5.12;51.56;100468.54;1706975;84;21192;-59
2021/01/16 08:46:53;;;;;;;17.45;11.08;;;;;;;-5.13;51.29;100469.49;1702906;84;21217;-57
2021/01/16 08:50:04;;;;;;;21.30;11.88;;;;;;;-5.15;51.25;100462.02;1704498;84;21764;-56
2021/01/16 08:53:29;;;;;;;23.87;13.22;;;;;;;-5.13;51.08;100466.83;1678615;84;22036;-57
2021/01/16 08:56:36;;;;;;;20.17;11.80;;;;;;;-5.12;51.03;100468.54;1686682;82;21254;-58
2021/01/16 08:59:42;;;;;;;21.23;12.13;;;;;;;-5.16;50.79;100475.44;1678478;85;21286;-59
2021/01/16 09:02:48;;;;;;;19.02;11.55;;;;;;;-5.20;50.79;100472.55;1699442;84;21250;-58
2021/01/16 09:05:55;;;;;;;20.12;11.95;;;;;;;-5.19;50.64;100471.14;1694855;84;21354;-60
2021/01/16 09:09:03;;;;;;;22.48;10.40;;;;;;;-5.17;50.43;100467.05;1703462;84;21428;-57
2021/01/16 09:12:23;;;;;;;23.75;11.83;;;;;;;-5.14;50.46;100470.44;1699509;84;21215;-56
2021/01/16 09:15:42;;;;;;;19.20;11.68;;;;;;;-5.02;50.19;100467.61;1642797;86;21256;-57
2021/01/16 09:18:46;;;;;;;18.65;9.70;;;;;;;-5.02;50.00;100468.95;1704694;84;21293;-59
2021/01/16 09:21:54;;;;;;;18.82;10.10;;;;;;;-5.00;49.66;100473.28;1681524;84;21266;-57
2021/01/16 09:25:31;;;;;;;34.70;14.95;;;;;;;-4.98;49.64;100462.53;1697755;84;21318;-58
2021/01/16 09:28:52;;;;;;;19.15;11.22;;;;;;;-5.00;49.32;100463.95;1703929;84;21640;-58
2021/01/16 09:31:57;;;;;;;24.00;12.33;;;;;;;-4.91;49.29;100462.59;1700600;84;21227;-57
2021/01/16 09:35:05;;;;;;;22.22;11.53;;;;;;;-4.92;48.76;100476.44;1702387;84;21815;-60
2021/01/16 09:38:13;;;;;;;15.03;8.85;;;;;;;-4.96;48.55;100478.84;1700515;84;21385;-59
2021/01/16 09:41:19;;;;;;;19.32;9.40;;;;;;;-4.99;48.30;100481.67;1702076;84;21346;-59
2021/01/16 09:44:52;;;;;;;29.60;12.98;;;;;;;-5.04;48.05;100475.70;1686248;84;21599;-59
2021/01/16 09:47:58;;;;;;;19.95;10.55;;;;;;;-5.03;47.80;100490.79;1702193;84;21865;-59
2021/01/16 09:51:09;;;;;;;23.75;12.90;;;;;;;-4.96;47.85;100487.31;1698901;84;21788;-58
2021/01/16 09:54:21;;;;;;;28.62;14.15;;;;;;;-4.83;47.56;100490.64;1686477;84;21311;-59
2021/01/16 09:57:45;;;;;;;26.17;13.18;;;;;;;-4.76;47.32;100485.38;1708366;81;21579;-59
2021/01/16 10:00:50;;;;;;;19.82;11.10;;;;;;;-4.81;46.83;100488.77;1722569;83;21723;-60
2021/01/16 10:03:56;;;;;;;24.67;13.78;;;;;;;-4.82;47.07;100489.69;1725321;82;21230;-59
2021/01/16 10:07:02;;;;;;;25.10;14.13;;;;;;;-4.52;46.79;100494.42;1724889;82;21580;-59
2021/01/16 10:10:06;;;;;;;19.55;10.88;;;;;;;-4.30;46.19;100488.36;1723938;82;21254;-58
2021/01/16 10:13:11;;;;;;;19.55;11.38;;;;;;;-4.30;45.92;100481.68;1722730;83;21327;-59
2021/01/16 10:16:21;;;;;;;18.07;9.88;;;;;;;-4.33;45.82;100469.82;1702202;83;21215;-58
2021/01/16 10:19:27;;;;;;;15.28;9.33;;;;;;;-4.30;45.77;100475.88;1723128;83;21253;-59
2021/01/16 10:22:33;;;;;;;22.90;10.48;;;;;;;-4.27;45.69;100480.18;1728474;82;21230;-59
2021/01/16 10:25:48;;;;;;;21.60;10.75;;;;;;;-4.20;45.50;100469.57;1644844;85;21264;-59
2021/01/16 10:29:01;;;;;;;33.83;14.95;;;;;;;-4.20;45.31;100470.91;1721646;83;21234;-59
2021/01/16 10:32:31;;;;;;;17.15;10.15;;;;;;;-4.17;45.39;100473.41;1691715;85;21817;-58
2021/01/16 10:35:37;;;;;;;23.62;11.93;;;;;;;-4.10;45.33;100460.09;1720914;83;21316;-58
2021/01/16 10:38:57;;;;;;;21.40;10.78;;;;;;;-3.99;45.12;100457.24;1719483;83;21246;-58
2021/01/16 10:42:02;;;;;;;27.15;18.23;;;;;;;-3.96;44.99;100470.91;1722314;83;21299;-57
2021/01/16 10:45:10;;;;;;;16.23;9.65;;;;;;;;;;1723239;82;21211;-59
2021/01/16 10:48:25;;;;;;;33.18;19.40;;;;;;;-4.04;44.66;100471.81;1722623;83;21230;-58
2021/01/16 10:51:31;;;;;;;21.12;11.50;;;;;;;-3.95;44.75;100478.87;1722701;83;21720;-59
2021/01/16 10:54:36;;;;;;;20.50;10.95;;;;;;;-3.75;44.69;100473.75;1721406;83;21271;-58
2021/01/16 10:57:56;;;;;;;15.85;9.25;;;;;;;-3.56;44.26;100470.45;1729056;82;21202;-58
2021/01/16 11:01:03;;;;;;;24.70;14.65;;;;;;;-3.45;43.86;100462.69;1729044;82;21214;-57
2021/01/16 11:04:10;;;;;;;31.52;15.70;;;;;;;-3.50;43.82;100462.08;1728633;83;21232;-58
2021/01/16 11:07:17;;;;;;;27.60;16.40;;;;;;;-3.37;43.88;100464.46;1726441;83;21236;-58
2021/01/16 11:10:25;;;;;;;47.60;21.65;;;;;;;-3.28;43.60;100463.46;1724937;83;21208;-59
2021/01/16 11:13:36;;;;;;;22.82;12.47;;;;;;;-3.19;43.56;100462.93;1721457;83;21215;-59
2021/01/16 11:16:45;;;;;;;17.73;10.32;;;;;;;-3.07;43.51;100462.70;1718207;83;21200;-56
2021/01/16 11:19:53;;;;;;;16.00;8.80;;;;;;;-3.23;43.15;100464.07;1716062;82;21185;-57
2021/01/16 11:23:36;;;;;;;17.57;10.43;;;;;;;-3.49;42.90;100457.14;1726999;83;21509;-57
2021/01/16 11:26:54;;;;;;;17.00;10.35;;;;;;;-3.68;43.22;100465.80;1726208;83;21216;-57
2021/01/16 11:29:58;;;;;;;17.92;10.78;;;;;;;-3.72;42.97;100473.58;1728074;83;21803;-57
2021/01/16 11:33:04;;;;;;;21.93;13.25;;;;;;;-3.92;42.99;100461.78;1727868;83;21825;-57
2021/01/16 11:36:15;;;;;;;20.52;12.05;;;;;;;-3.89;43.41;100471.84;1710302;82;21174;-57
2021/01/16 11:39:25;;;;;;;23.27;12.15;;;;;;;-3.84;43.44;100473.80;1727239;83;21288;-57
2021/01/16 11:42:30;;;;;;;32.40;18.37;;;;;;;-3.94;43.18;100471.69;1727635;83;21189;-58
2021/01/16 11:45:35;;;;;;;20.40;11.88;;;;;;;-4.05;43.68;100473.63;1722765;83;21193;-58
2021/01/16 11:48:39;;;;;;;32.95;17.23;;;;;;;-4.05;43.80;100466.06;1724394;83;21236;-58
2021/01/16 11:51:45;;;;;;;30.77;16.10;;;;;;;-4.09;43.53;100463.18;1723594;83;21856;-58
2021/01/16 11:54:50;;;;;;;20.15;9.83;;;;;;;-4.10;43.65;100470.32;1719642;83;21224;-57
2021/01/16 11:57:55;;;;;;;28.55;13.43;;;;;;;-4.20;43.52;100464.23;1728301;83;21193;-57
2021/01/16 12:01:05;;;;;;;17.55;10.18;;;;;;;-4.31;43.72;100463.94;1721949;82;21398;-57
2021/01/16 12:04:11;;;;;;;22.32;12.50;;;;;;;-4.32;44.09;100455.51;1722362;83;21803;-57
2021/01/16 12:07:18;;;;;;;19.95;11.25;;;;;;;-4.46;44.05;100456.25;1719179;82;21209;-57
2021/01/16 12:10:34;;;;;;;29.42;15.18;;;;;;;-4.49;44.22;100468.89;1721559;83;22070;-57
2021/01/16 12:13:39;;;;;;;30.48;14.73;;;;;;;-4.52;44.13;100469.92;1721182;83;21229;-57
2021/01/16 12:16:48;;;;;;;30.90;14.65;;;;;;;-4.44;44.56;100472.19;1717643;83;21207;-57
2021/01/16 12:19:56;;;;;;;24.30;12.85;;;;;;;-4.35;44.39;100478.38;1715149;83;21218;-58
2021/01/16 12:23:06;;;;;;;19.55;12.23;;;;;;;-4.42;44.14;100482.33;1692321;84;21199;-57
2021/01/16 12:26:15;;;;;;;26.35;13.03;;;;;;;-4.50;44.43;100484.04;1717320;83;21732;-57
2021/01/16 12:29:29;;;;;;;21.20;11.28;;;;;;;-4.47;44.51;100489.72;1719332;83;21707;-56
2021/01/16 12:32:38;;;;;;;19.25;10.63;;;;;;;-4.33;44.67;100493.86;1722475;83;21194;-57
2021/01/16 12:35:57;;;;;;;19.07;9.80;;;;;;;-4.24;44.23;100494.25;1693532;83;21206;-57
2021/01/16 12:39:08;;;;;;;19.98;11.05;;;;;;;-4.29;43.86;100490.95;1722970;83;21755;-57
2021/01/16 12:42:18;;;;;;;22.60;12.10;;;;;;;-4.49;44.03;100497.81;1693666;84;21251;-57
2021/01/16 12:45:31;;;;;;;21.57;12.33;;;;;;;-4.52;44.50;100499.77;1693996;84;21289;-58
2021/01/16 12:48:36;;;;;;;26.80;13.22;;;;;;;-4.46;44.32;100519.48;1718418;83;21199;-57
2021/01/16 12:51:42;;;;;;;29.90;13.15;;;;;;;-4.57;44.24;100531.17;1721555;83;21199;-56
2021/01/16 12:54:47;;;;;;;31.27;15.50;;;;;;;-4.77;44.08;100521.48;1721695;83;21269;-56
2021/01/16 12:57:53;;;;;;;39.88;16.40;;;;;;;-5.04;44.26;100524.19;1721735;83;21206;-58
2021/01/16 13:00:58;;;;;;;26.12;13.98;;;;;;;-5.26;44.65;100529.71;1715256;81;21748;-57
2021/01/16 13:04:04;;;;;;;22.90;12.03;;;;;;;-5.43;45.17;100534.11;1710851;83;21230;-56
2021/01/16 13:07:10;;;;;;;19.67;10.23;;;;;;;-5.49;45.44;100538.41;1708740;84;21246;-57
2021/01/16 13:10:23;;;;;;;18.95;9.70;;;;;;;-5.53;45.90;100545.68;1713854;83;21191;-57
2021/01/16 13:13:29;;;;;;;19.70;10.48;;;;;;;-5.60;45.86;100546.05;1721487;83;21218;-57
2021/01/16 13:16:37;;;;;;;18.82;9.78;;;;;;;-5.67;46.11;100545.46;1718357;83;21278;-58
2021/01/16 13:19:44;;;;;;;19.23;10.05;;;;;;;-5.66;46.25;100555.17;1715903;83;21279;-56
2021/01/16 13:22:56;;;;;;;17.45;10.15;;;;;;;-5.70;46.43;100550.94;1701694;83;21381;-57
2021/01/16 13:26:03;;;;;;;21.52;12.35;;;;;;;-5.72;46.44;100552.80;1707556;83;21227;-57
2021/01/16 13:29:10;;;;;;;33.50;15.38;;;;;;;-5.69;46.51;100559.32;1709158;84;21210;-59
2021/01/16 13:32:14;;;;;;;31.07;15.28;;;;;;;-5.75;46.45;100566.27;1709722;84;21270;-58
2021/01/16 13:35:22;;;;;;;23.85;12.45;;;;;;;-5.84;46.72;100550.74;1710281;84;21784;-57
2021/01/16 13:38:39;;;;;;;20.35;12.10;;;;;;;-5.84;46.84;100540.54;1705035;84;21222;-56
2021/01/16 13:41:49;;;;;;;28.57;14.28;;;;;;;-5.89;46.96;100546.08;1710674;84;21207;-57
2021/01/16 13:45:06;;;;;;;28.73;14.20;;;;;;;-5.93;47.21;100545.80;1711373;83;21236;-56
2021/01/16 13:48:12;;;;;;;23.65;13.98;;;;;;;-5.96;47.34;100543.28;1722180;83;21305;-58
2021/01/16 13:51:35;;;;;;;28.62;14.98;;;;;;;-6.06;47.60;100543.31;1723334;83;21214;-57
2021/01/16 13:54:42;;;;;;;29.35;15.78;;;;;;;-6.15;47.81;100550.36;1723786;82;21741;-58
2021/01/16 13:57:48;;;;;;;32.38;15.80;;;;;;;-6.24;48.11;100544.12;1718640;83;21230;-58
2021/01/16 14:00:55;;;;;;;31.57;15.98;;;;;;;-6.26;48.43;100541.98;1719281;83;21219;-58
2021/01/16 14:04:00;;;;;;;23.92;12.50;;;;;;;-6.24;48.60;100537.45;1724585;83;21244;-56
2021/01/16 14:07:08;;;;;;;26.68;13.15;;;;;;;-6.22;48.79;100532.94;1728743;83;21235;-56
2021/01/16 14:10:15;;;;;;;29.95;16.25;;;;;;;-6.22;48.80;100535.60;1728761;83;21315;-56
2021/01/16 14:13:25;;;;;;;52.70;26.05;;;;;;;-6.27;48.88;100541.59;1729155;83;21212;-58
2021/01/16 14:16:31;;;;;;;55.52;26.57;;;;;;;-6.24;49.06;100554.31;1728598;83;21555;-56